createdAt,value
2022-08-05T00:01:27.705Z,72.20
2022-08-05T00:03:57.123Z,71.10
2022-08-05T00:06:32.399Z,70.90
2022-08-05T00:09:00.793Z,71.20
2022-08-05T00:11:34.511Z,71.20
2022-08-05T00:14:12.588Z,71.20
2022-08-05T00:16:53.107Z,71.90
2022-08-05T00:19:33.337Z,70.70
2022-08-05T00:22:07.814Z,71.00
2022-08-05T00:24:38.656Z,70.80
2022-08-05T00:27:10.403Z,70.90
2022-08-05T00:29:41.255Z,71.00
2022-08-05T00:32:15.408Z,71.20
2022-08-05T00:35:03.727Z,71.20
2022-08-05T00:37:50.906Z,71.80
2022-08-05T00:40:27.004Z,71.70
2022-08-05T00:42:57.442Z,71.50
2022-08-05T00:45:28.339Z,71.50
2022-08-05T00:48:06.235Z,71.40
2022-08-05T00:50:34.013Z,71.30
2022-08-05T00:53:01.122Z,71.20
2022-08-05T00:55:34.098Z,71.40
2022-08-05T00:58:14.256Z,71.50
2022-08-05T01:00:42.234Z,71.10
2022-08-05T01:03:22.191Z,71.50
2022-08-05T01:05:51.233Z,71.40
2022-08-05T01:08:41.598Z,71.30
2022-08-05T01:11:36.759Z,72.00
2022-08-05T01:14:15.442Z,72.40
2022-08-05T01:17:00.085Z,72.70
2022-08-05T01:20:02.124Z,73.60
2022-08-05T01:22:57.396Z,74.10
2022-08-05T01:25:53.260Z,73.70
2022-08-05T01:28:28.204Z,74.20
2022-08-05T01:31:03.403Z,74.40
2022-08-05T01:33:49.239Z,73.70
2022-08-05T01:36:28.058Z,74.00
2022-08-05T01:39:00.102Z,73.60
2022-08-05T01:41:32.383Z,73.80
2022-08-05T01:44:00.885Z,74.30
2022-08-05T01:46:42.792Z,74.10
2022-08-05T01:49:23.817Z,74.60
2022-08-05T01:51:56.471Z,74.90
2022-08-05T01:54:46.074Z,75.10
2022-08-05T01:58:11.342Z,74.60
2022-08-05T02:00:06.379Z,74.70
2022-08-05T02:02:46.563Z,74.80
2022-08-05T02:05:25.195Z,75.50
2022-08-05T02:08:01.316Z,75.20
2022-08-05T02:10:35.254Z,74.40
2022-08-05T02:13:16.325Z,75.60
2022-08-05T02:16:24.387Z,75.40
2022-08-05T02:19:07.157Z,75.60
2022-08-05T02:21:43.256Z,75.70
2022-08-05T02:24:23.328Z,75.70
2022-08-05T02:26:56.706Z,76.20
2022-08-05T02:29:59.233Z,76.20
2022-08-05T02:32:23.938Z,76.00
2022-08-05T02:34:59.088Z,76.60
2022-08-05T02:37:32.544Z,75.50
2022-08-05T02:40:01.270Z,76.10
2022-08-05T02:42:34.264Z,75.50
2022-08-05T02:45:03.926Z,75.00
2022-08-05T02:48:07.702Z,76.00
2022-08-05T02:50:23.966Z,76.30
2022-08-05T02:52:52.299Z,76.30
2022-08-05T02:55:54.471Z,76.30
2022-08-05T02:58:11.547Z,76.60
2022-08-05T03:00:41.607Z,76.30
2022-08-05T03:03:20.525Z,76.90
2022-08-05T03:06:53.762Z,78.00
2022-08-05T03:08:42.748Z,76.80
2022-08-05T03:11:56.586Z,77.10
2022-08-05T03:14:08.036Z,77.90
2022-08-05T03:16:35.838Z,76.60
2022-08-05T03:19:12.790Z,76.50
2022-08-05T03:21:49.528Z,76.60
2022-08-05T03:24:27.529Z,76.40
2022-08-05T03:26:58.658Z,77.20
2022-08-05T03:29:45.762Z,76.60
2022-08-05T03:32:15.406Z,76.80
2022-08-05T03:34:51.085Z,77.10
2022-08-05T03:37:21.003Z,77.10
2022-08-05T03:40:01.220Z,77.10
2022-08-05T03:42:32.893Z,78.00
2022-08-05T03:45:22.071Z,77.00
2022-08-05T03:47:50.208Z,77.00
2022-08-05T03:50:17.494Z,77.00
2022-08-05T03:55:50.797Z,77.30
2022-08-05T03:56:11.015Z,78.40
2022-08-05T03:58:42.660Z,78.20
2022-08-05T04:01:13.913Z,77.90
2022-08-05T04:03:56.956Z,77.70
2022-08-05T04:06:34.964Z,78.80
2022-08-05T04:09:05.942Z,78.00
2022-08-05T04:11:50.503Z,77.00
2022-08-05T04:14:19.797Z,77.20
2022-08-05T04:16:58.920Z,77.20
2022-08-05T04:19:27.418Z,77.00
2022-08-05T04:22:09.918Z,77.20
2022-08-05T04:24:52.268Z,77.30
2022-08-05T04:27:42.225Z,78.50
2022-08-05T04:30:09.580Z,77.50
2022-08-05T04:32:36.728Z,77.90
2022-08-05T04:35:05.892Z,78.80
2022-08-05T04:38:01.029Z,77.80
2022-08-05T04:40:20.079Z,78.20
2022-08-05T04:42:47.033Z,78.00
2022-08-05T04:45:31.079Z,78.20
2022-08-05T04:48:16.535Z,78.30
2022-08-05T04:51:03.813Z,78.80
2022-08-05T04:53:38.846Z,78.00
2022-08-05T04:56:33.693Z,78.10
2022-08-05T04:58:56.594Z,78.90
2022-08-05T05:02:04.040Z,78.40
2022-08-05T05:04:10.583Z,78.10
2022-08-05T05:06:44.200Z,78.10
2022-08-05T05:09:17.326Z,78.40
2022-08-05T05:11:53.901Z,78.30
2022-08-05T05:14:31.545Z,78.30
2022-08-05T05:17:00.584Z,78.10
2022-08-05T05:19:36.969Z,78.30
2022-08-05T05:22:23.673Z,78.00
2022-08-05T05:24:58.411Z,78.00
2022-08-05T05:27:44.712Z,77.50
2022-08-05T05:30:29.093Z,78.00
2022-08-05T05:33:00.465Z,78.80
2022-08-05T05:35:31.614Z,77.60
2022-08-05T05:38:09.509Z,77.50
2022-08-05T05:40:48.392Z,78.80
2022-08-05T05:43:22.079Z,77.50
2022-08-05T05:46:10.648Z,77.90
2022-08-05T05:48:44.245Z,77.00
2022-08-05T05:51:15.699Z,77.00
2022-08-05T05:53:57.482Z,76.90
2022-08-05T05:56:34.145Z,78.20
2022-08-05T05:59:07.445Z,78.40
2022-08-05T06:01:40.397Z,78.20
2022-08-05T06:04:12.673Z,77.90
2022-08-05T06:06:47.744Z,77.00
2022-08-05T06:09:24.856Z,77.20
2022-08-05T06:12:01.035Z,76.10
2022-08-05T06:14:30.617Z,76.10
2022-08-05T06:16:58.363Z,75.30
2022-08-05T06:19:34.701Z,74.60
2022-08-05T06:22:06.918Z,73.90
2022-08-05T06:24:35.123Z,74.20
2022-08-05T06:27:04.062Z,74.00
2022-08-05T06:29:49.240Z,72.90
2022-08-05T06:32:25.171Z,72.50
2022-08-05T06:34:56.678Z,72.80
2022-08-05T06:37:56.203Z,73.00
2022-08-05T06:40:13.997Z,72.50
2022-08-05T06:42:45.868Z,73.30
2022-08-05T06:45:20.808Z,71.80
2022-08-05T06:48:47.060Z,71.00
2022-08-05T06:50:35.600Z,70.80
2022-08-05T06:53:11.745Z,70.80
2022-08-05T06:55:49.554Z,71.00
2022-08-05T06:58:29.669Z,71.20
2022-08-05T07:01:04.210Z,70.80
2022-08-05T07:03:33.199Z,70.60
2022-08-05T07:06:06.033Z,69.70
2022-08-05T07:08:47.813Z,68.40
2022-08-05T07:11:22.235Z,67.30
2022-08-05T07:14:20.143Z,66.90
2022-08-05T07:17:59.468Z,66.20
2022-08-05T07:20:16.664Z,66.20
2022-08-05T07:22:28.858Z,65.90
2022-08-05T07:24:59.553Z,66.40
2022-08-05T07:27:58.720Z,66.90
2022-08-05T07:30:38.563Z,66.40
2022-08-05T07:33:10.166Z,66.50
2022-08-05T07:35:55.735Z,66.50
2022-08-05T07:38:33.509Z,66.70
2022-08-05T07:41:35.067Z,66.40
2022-08-05T07:43:58.317Z,65.60
2022-08-05T07:46:27.654Z,64.80
2022-08-05T07:49:03.027Z,64.40
2022-08-05T07:51:48.929Z,64.70
2022-08-05T07:54:23.285Z,64.10
2022-08-05T07:57:01.662Z,62.50
2022-08-05T07:59:41.425Z,62.20
2022-08-05T08:02:15.656Z,61.90
2022-08-05T08:04:49.517Z,60.60
2022-08-05T08:07:23.059Z,59.70
2022-08-05T08:09:52.909Z,57.60
2022-08-05T08:12:37.350Z,57.00
2022-08-05T08:15:09.638Z,57.20
2022-08-05T08:17:44.004Z,57.20
2022-08-05T08:20:42.449Z,56.00
2022-08-05T08:23:03.736Z,56.00
2022-08-05T08:25:59.117Z,55.30
2022-08-05T08:28:36.566Z,53.90
2022-08-05T08:31:08.065Z,53.50
2022-08-05T08:33:38.118Z,52.90
2022-08-05T08:36:29.470Z,52.00
2022-08-05T08:38:55.684Z,52.10
2022-08-05T08:41:26.132Z,50.70
2022-08-05T08:45:23.474Z,50.00
2022-08-05T08:47:03.724Z,50.10
2022-08-05T08:50:18.080Z,48.80
2022-08-05T08:52:38.882Z,48.70
2022-08-05T08:55:13.265Z,49.40
2022-08-05T08:57:46.451Z,47.50
2022-08-05T09:00:25.022Z,46.50
2022-08-05T09:02:54.458Z,46.60
2022-08-05T09:05:39.038Z,46.30
2022-08-05T09:08:09.819Z,45.80
2022-08-05T09:10:37.041Z,46.30
2022-08-05T09:13:07.467Z,45.90
2022-08-05T09:15:37.080Z,45.00
2022-08-05T09:18:10.268Z,44.60
2022-08-05T09:20:43.589Z,43.50
2022-08-05T09:23:21.761Z,43.80
2022-08-05T09:26:20.564Z,43.10
2022-08-05T09:28:49.434Z,43.20
2022-08-05T09:31:43.729Z,43.10
2022-08-05T09:34:09.669Z,42.90
2022-08-05T09:36:55.945Z,42.30
2022-08-05T09:39:39.465Z,40.80
2022-08-05T09:42:20.247Z,41.10
2022-08-05T09:44:56.542Z,41.40
2022-08-05T09:47:36.523Z,41.60
2022-08-05T09:50:37.315Z,40.80
2022-08-05T09:53:05.240Z,39.70
2022-08-05T09:55:58.551Z,39.60
2022-08-05T09:58:24.343Z,39.90
2022-08-05T10:00:59.005Z,40.20
2022-08-05T10:03:56.776Z,39.80
2022-08-05T10:06:15.587Z,40.40
2022-08-05T10:08:43.401Z,40.10
2022-08-05T10:11:20.840Z,40.40
2022-08-05T10:13:49.205Z,39.20
2022-08-05T10:16:32.296Z,38.20
2022-08-05T10:19:08.531Z,36.60
2022-08-05T10:21:40.466Z,35.40
2022-08-05T10:24:13.757Z,33.90
2022-08-05T10:26:52.021Z,33.70
2022-08-05T10:29:24.023Z,33.50
2022-08-05T10:32:54.349Z,33.80
2022-08-05T10:35:01.066Z,34.00
2022-08-05T10:37:40.073Z,34.10
2022-08-05T10:40:47.646Z,33.10
2022-08-05T10:43:41.551Z,33.50
2022-08-05T10:46:10.728Z,33.20
2022-08-05T10:48:56.551Z,33.20
2022-08-05T10:51:28.575Z,33.30
2022-08-05T10:54:01.965Z,32.90
2022-08-05T10:56:49.289Z,32.70
2022-08-05T11:00:02.414Z,32.80
2022-08-05T11:02:38.422Z,32.20
2022-08-05T11:05:09.471Z,32.70
2022-08-05T11:08:02.494Z,31.80
2022-08-05T11:10:37.292Z,32.00
2022-08-05T11:13:06.599Z,31.90
2022-08-05T11:16:00.406Z,29.40
2022-08-05T11:18:34.102Z,28.60
2022-08-05T11:21:06.494Z,29.20
2022-08-05T11:24:04.788Z,28.90
2022-08-05T11:26:40.466Z,28.40
2022-08-05T11:29:41.041Z,28.00
2022-08-05T11:32:27.486Z,28.10
2022-08-05T11:34:55.484Z,27.30
2022-08-05T11:38:28.578Z,26.80
2022-08-05T11:41:13.929Z,27.40
2022-08-05T11:44:06.417Z,27.00
2022-08-05T11:47:09.176Z,27.20
2022-08-05T11:49:25.041Z,27.30
2022-08-05T11:51:57.502Z,27.60
2022-08-05T11:54:34.915Z,28.00
2022-08-05T11:57:08.372Z,28.60
2022-08-05T11:59:41.416Z,29.10
2022-08-05T12:02:24.269Z,29.00
2022-08-05T12:05:00.970Z,29.50
2022-08-05T12:08:07.981Z,29.30
2022-08-05T12:10:24.896Z,29.80
2022-08-05T12:13:15.928Z,30.30
2022-08-05T12:15:45.335Z,31.70
2022-08-05T12:18:32.854Z,32.00
2022-08-05T12:21:15.160Z,32.20
2022-08-05T12:23:58.418Z,32.30
2022-08-05T12:26:44.163Z,31.90
2022-08-05T12:29:25.325Z,30.60
2022-08-05T12:31:55.191Z,29.70
2022-08-05T12:34:26.833Z,29.60
2022-08-05T12:36:56.031Z,30.00
2022-08-05T12:39:37.328Z,29.50
2022-08-05T12:42:17.916Z,29.90
2022-08-05T12:44:45.946Z,29.90
2022-08-05T12:47:26.712Z,30.40
2022-08-05T12:50:04.596Z,31.00
2022-08-05T12:52:38.836Z,32.10
2022-08-05T12:55:25.900Z,32.20
2022-08-05T12:58:50.346Z,32.30
2022-08-05T13:02:01.734Z,32.80
2022-08-05T13:03:34.652Z,33.30
2022-08-05T13:06:12.176Z,33.80
2022-08-05T13:08:39.990Z,33.50
2022-08-05T13:11:07.993Z,34.00
2022-08-05T13:14:04.698Z,34.70
2022-08-05T13:16:29.846Z,35.00
2022-08-05T13:18:58.732Z,35.20
2022-08-05T13:21:48.051Z,36.10
2022-08-05T13:24:36.388Z,35.70
2022-08-05T13:27:10.937Z,35.70
2022-08-05T13:29:38.380Z,36.00
2022-08-05T13:32:33.020Z,36.00
2022-08-05T13:35:01.274Z,35.30
2022-08-05T13:37:34.589Z,35.80
2022-08-05T13:40:16.739Z,36.20
2022-08-05T13:42:49.801Z,34.60
2022-08-05T13:45:22.700Z,35.00
2022-08-05T13:48:09.411Z,34.10
2022-08-05T13:50:45.137Z,34.50
2022-08-05T13:53:15.966Z,35.20
2022-08-05T13:55:49.322Z,35.00
2022-08-05T13:58:37.355Z,34.10
2022-08-05T14:01:06.793Z,34.90
2022-08-05T14:03:34.399Z,34.70
2022-08-05T14:06:26.489Z,34.60
2022-08-05T14:08:48.430Z,34.70
2022-08-05T14:11:20.227Z,34.80
2022-08-05T14:14:13.591Z,35.30
2022-08-05T14:16:51.339Z,34.50
2022-08-05T14:19:22.339Z,34.20
2022-08-05T14:22:10.099Z,33.80
2022-08-05T14:24:40.139Z,34.50
2022-08-05T14:27:17.466Z,34.60
2022-08-05T14:29:51.415Z,32.90
2022-08-05T14:32:28.024Z,32.60
2022-08-05T14:34:56.974Z,32.30
2022-08-05T14:37:42.175Z,31.60
2022-08-05T14:40:14.248Z,32.00
2022-08-05T14:42:44.349Z,32.70
2022-08-05T14:45:11.786Z,33.30
2022-08-05T14:48:03.669Z,34.00
2022-08-05T14:50:45.367Z,34.10
2022-08-05T14:53:15.949Z,35.00
2022-08-05T14:55:43.047Z,34.70
2022-08-05T14:58:11.819Z,33.30
2022-08-05T15:00:59.725Z,33.10
2022-08-05T15:03:34.158Z,33.10
2022-08-05T15:06:15.033Z,33.90
2022-08-05T15:09:01.370Z,34.40
2022-08-05T15:11:52.388Z,35.90
2022-08-05T15:14:35.704Z,36.70
2022-08-05T15:17:09.885Z,36.60
2022-08-05T15:19:56.474Z,36.70
2022-08-05T15:22:26.955Z,37.60
2022-08-05T15:24:59.191Z,37.80
2022-08-05T15:27:26.603Z,38.50
2022-08-05T15:29:59.737Z,39.00
2022-08-05T15:32:28.570Z,39.10
2022-08-05T15:34:56.689Z,39.10
2022-08-05T15:38:08.616Z,39.20
2022-08-05T15:41:04.709Z,39.80
2022-08-05T15:43:12.616Z,41.00
2022-08-05T15:46:12.908Z,41.20
2022-08-05T15:49:09.805Z,40.90
2022-08-05T15:52:12.859Z,40.30
2022-08-05T15:55:06.355Z,38.90
2022-08-05T15:57:35.137Z,39.30
2022-08-05T16:00:04.227Z,39.50
2022-08-05T16:02:31.986Z,40.20
2022-08-05T16:04:59.848Z,41.40
2022-08-05T16:07:53.799Z,41.20
2022-08-05T16:10:25.274Z,40.40
2022-08-05T16:13:23.908Z,40.20
2022-08-05T16:16:00.026Z,39.50
2022-08-05T16:20:03.505Z,40.10
2022-08-05T16:22:10.660Z,38.70
2022-08-05T16:24:39.930Z,38.20
2022-08-05T16:27:09.084Z,38.90
2022-08-05T16:29:37.008Z,39.30
2022-08-05T16:32:09.684Z,39.60
2022-08-05T16:34:39.300Z,38.40
2022-08-05T16:38:02.655Z,38.30
2022-08-05T16:40:04.584Z,37.80
2022-08-05T16:42:57.759Z,36.80
2022-08-05T16:46:06.635Z,37.60
2022-08-05T16:48:25.591Z,36.40
2022-08-05T16:50:53.833Z,37.20
2022-08-05T16:53:22.505Z,36.30
2022-08-05T16:55:50.648Z,36.50
2022-08-05T16:58:19.805Z,36.00
2022-08-05T17:00:48.202Z,35.80
2022-08-05T17:03:20.313Z,34.60
2022-08-05T17:05:53.676Z,35.20
2022-08-05T17:08:35.841Z,34.30
2022-08-05T17:11:04.155Z,33.80
2022-08-05T17:13:44.427Z,34.20
2022-08-05T17:16:37.854Z,34.60
2022-08-05T17:19:09.605Z,34.50
2022-08-05T17:21:39.561Z,35.00
2022-08-05T17:24:30.085Z,35.00
2022-08-05T17:27:02.875Z,36.40
2022-08-05T17:29:34.110Z,36.50
2022-08-05T17:32:11.267Z,36.80
2022-08-05T17:34:42.068Z,36.40
2022-08-05T17:37:27.257Z,37.00
2022-08-05T17:39:57.505Z,36.30
2022-08-05T17:42:30.166Z,36.20
2022-08-05T17:45:10.098Z,37.40
2022-08-05T17:47:52.980Z,38.20
2022-08-05T17:50:28.420Z,38.30
2022-08-05T17:53:02.033Z,38.30
2022-08-05T17:55:38.239Z,39.40
2022-08-05T17:58:32.739Z,39.60
2022-08-05T18:00:59.989Z,40.80
2022-08-05T18:03:58.612Z,40.40
2022-08-05T18:06:16.195Z,40.40
2022-08-05T18:08:52.709Z,40.70
2022-08-05T18:11:23.772Z,41.50
2022-08-05T18:13:52.527Z,41.00
2022-08-05T18:18:01.117Z,41.10
2022-08-05T18:20:55.040Z,42.10
2022-08-05T18:24:22.602Z,42.60
2022-08-05T18:27:19.647Z,43.00
2022-08-05T18:29:53.506Z,43.60
2022-08-05T18:32:21.950Z,43.90
2022-08-05T18:34:55.845Z,43.40
2022-08-05T18:37:34.133Z,44.20
2022-08-05T18:40:31.096Z,43.90
2022-08-05T18:42:58.076Z,44.80
2022-08-05T18:45:41.777Z,44.10
2022-08-05T18:48:11.288Z,45.20
2022-08-05T18:52:03.136Z,44.90
2022-08-05T18:53:53.784Z,46.10
2022-08-05T18:56:21.674Z,45.90
2022-08-05T18:59:43.994Z,46.70
2022-08-05T19:02:27.997Z,48.00
2022-08-05T19:06:05.969Z,49.40
2022-08-05T19:07:57.141Z,50.20
2022-08-05T19:10:26.690Z,50.60
2022-08-05T19:12:56.829Z,49.40
2022-08-05T19:15:56.906Z,50.10
2022-08-05T19:18:13.604Z,50.40
2022-08-05T19:20:52.270Z,50.70
2022-08-05T19:24:04.480Z,51.50
2022-08-05T19:26:08.582Z,52.00
2022-08-05T19:28:42.010Z,53.30
2022-08-05T19:31:13.522Z,53.40
2022-08-05T19:33:48.412Z,53.00
2022-08-05T19:36:27.074Z,52.90
2022-08-05T19:39:02.360Z,54.50
2022-08-05T19:41:34.756Z,55.20
2022-08-05T19:44:19.250Z,54.40
2022-08-05T19:46:46.676Z,55.00
2022-08-05T19:49:17.280Z,55.50
2022-08-05T19:52:04.863Z,55.30
2022-08-05T19:54:57.655Z,55.80
2022-08-05T19:57:47.445Z,57.80
2022-08-05T20:00:14.956Z,56.80
2022-08-05T20:02:41.896Z,57.20
2022-08-05T20:05:16.481Z,57.70
2022-08-05T20:07:59.392Z,58.20
2022-08-05T20:10:26.537Z,60.10
2022-08-05T20:12:54.982Z,58.20
2022-08-05T20:15:52.035Z,58.50
2022-08-05T20:18:32.813Z,59.00
2022-08-05T20:21:00.070Z,59.30
2022-08-05T20:23:39.652Z,60.80
2022-08-05T20:26:15.320Z,59.80
2022-08-05T20:29:06.720Z,60.70
2022-08-05T20:31:57.974Z,61.80
2022-08-05T20:34:25.442Z,60.80
2022-08-05T20:36:52.400Z,61.00
2022-08-05T20:39:19.708Z,62.00
2022-08-05T20:42:40.413Z,61.70
2022-08-05T20:45:12.889Z,63.40
2022-08-05T20:47:40.257Z,63.60
2022-08-05T20:50:08.237Z,62.30
2022-08-05T20:52:41.348Z,62.80
2022-08-05T20:56:02.752Z,64.10
2022-08-05T20:57:57.153Z,63.00
2022-08-05T21:00:56.742Z,62.90
2022-08-05T21:03:24.067Z,64.70
2022-08-05T21:06:47.594Z,63.70
2022-08-05T21:09:15.960Z,65.30
2022-08-05T21:12:06.969Z,65.00
2022-08-05T21:14:59.669Z,66.20
2022-08-05T21:17:27.119Z,66.70
2022-08-05T21:19:55.791Z,65.30
2022-08-05T21:22:26.305Z,65.80
2022-08-05T21:24:54.914Z,67.30
2022-08-05T21:27:25.531Z,67.00
2022-08-05T21:29:58.335Z,67.50
2022-08-05T21:32:29.256Z,69.30
2022-08-05T21:35:58.286Z,67.80
2022-08-05T21:38:26.950Z,69.90
2022-08-05T21:40:54.195Z,69.00
2022-08-05T21:43:24.755Z,69.10
2022-08-05T21:45:56.794Z,70.00
2022-08-05T21:48:39.722Z,70.10
2022-08-05T21:52:15.385Z,72.30
2022-08-05T21:53:59.478Z,70.30
2022-08-05T21:56:32.800Z,71.90
2022-08-05T21:59:24.105Z,72.40
2022-08-05T22:01:54.802Z,73.30
2022-08-05T22:04:25.783Z,72.50
2022-08-05T22:06:53.033Z,73.50
2022-08-05T22:09:22.266Z,71.80
2022-08-05T22:11:49.402Z,72.80
2022-08-05T22:14:37.514Z,72.10
2022-08-05T22:17:06.441Z,74.40
2022-08-05T22:20:02.937Z,73.00
2022-08-05T22:22:27.658Z,73.30
2022-08-05T22:25:20.922Z,73.00
2022-08-05T22:28:09.915Z,73.60
2022-08-05T22:31:08.455Z,74.30
2022-08-05T22:33:57.025Z,75.30
2022-08-05T22:36:25.284Z,73.90
2022-08-05T22:38:54.331Z,74.30
2022-08-05T22:41:26.326Z,76.00
2022-08-05T22:44:09.368Z,75.10
2022-08-05T22:46:48.674Z,74.50
2022-08-05T22:50:26.859Z,77.80
2022-08-05T22:53:49.796Z,76.80
2022-08-05T22:56:18.033Z,77.20
2022-08-05T22:59:03.209Z,76.10
2022-08-05T23:02:03.887Z,76.00
2022-08-05T23:08:36.179Z,77.90
2022-08-05T23:11:19.557Z,76.10
2022-08-05T23:14:39.551Z,78.80
2022-08-05T23:17:34.871Z,78.50
2022-08-05T23:20:15.567Z,76.60
2022-08-05T23:22:44.022Z,79.20
2022-08-05T23:25:17.080Z,77.70
2022-08-05T23:27:58.037Z,78.20
2022-08-05T23:30:40.086Z,77.60
2022-08-05T23:33:16.155Z,80.00
2022-08-05T23:35:57.401Z,78.50
2022-08-05T23:38:26.161Z,80.60
2022-08-05T23:41:00.030Z,78.60
2022-08-05T23:43:37.396Z,80.60
2022-08-05T23:46:21.381Z,78.40
2022-08-05T23:49:00.326Z,78.50
2022-08-05T23:51:52.491Z,79.60
2022-08-05T23:54:29.956Z,81.40
2022-08-05T23:57:04.030Z,81.30
